Time;durP1;ratioP1;P1;durP2;ratioP2;P2;SDS_P1;SDS_P2;PMS_P1;PMS_P2;Temp;Humidity;BMP_temperature;BMP_pressure;BME280_temperature;BME280_humidity;BME280_pressure;Samples;Min_cycle;Max_cycle;Signal;HPM_P1;HPM_P2
2024/02/26 00:12:54;;;;;;;3.07;2.37;;;;;;;4.01;100.00;101171.09;31099738;28;20064;-80
2024/02/26 00:27:57;;;;;;;2.57;1.93;;;;;;;3.86;100.00;101148.47;31053101;28;20160;-80
2024/02/26 00:42:59;;;;;;;12.07;2.70;;;;;;;3.52;100.00;101131.16;31089654;28;20516;-80
2024/02/26 00:58:01;;;;;;;11.67;2.37;;;;;;;3.68;100.00;101126.56;31105532;28;20058;-80
2024/02/26 01:13:04;;;;;;;3.53;2.43;;;;;;;3.54;100.00;101120.84;31132149;28;20090;-80
2024/02/26 01:28:06;;;;;;;4.60;2.20;;;;;;;3.49;100.00;101112.25;31107512;28;20057;-80
2024/02/26 01:43:08;;;;;;;3.87;2.43;;;;;;;3.12;100.00;101092.88;31111186;28;20049;-80
2024/02/26 01:58:11;;;;;;;9.40;2.83;;;;;;;3.34;100.00;101109.19;31124731;28;20057;-81
2024/02/26 02:13:13;;;;;;;2.17;1.50;;;;;;;3.11;100.00;101096.69;31010577;28;20055;-79
2024/02/26 02:28:16;;;;;;;9.87;3.23;;;;;;;3.00;100.00;101102.56;30979557;28;20058;-81
2024/02/26 02:43:18;;;;;;;6.47;3.00;;;;;;;2.90;100.00;101092.31;30947247;28;20042;-81
2024/02/26 02:58:20;;;;;;;13.07;3.13;;;;;;;2.96;100.00;101074.88;30985164;28;20074;-80
2024/02/26 03:13:22;;;;;;;22.60;3.70;;;;;;;2.76;100.00;101075.84;31098330;28;20050;-81
2024/02/26 03:28:24;;;;;;;12.07;3.43;;;;;;;2.77;100.00;101077.41;31073034;28;20057;-79
2024/02/26 03:43:26;;;;;;;12.17;2.60;;;;;;;2.16;100.00;101080.25;31112997;28;20061;-82
2024/02/26 03:58:28;;;;;;;2.67;2.43;;;;;;;2.25;100.00;101067.53;31114325;28;20056;-81
2024/02/26 04:13:30;;;;;;;20.17;3.67;;;;;;;2.31;100.00;101060.81;31078902;28;20058;-82
2024/02/26 04:28:32;;;;;;;11.37;3.97;;;;;;;2.27;100.00;101059.94;31114398;28;20085;-82
2024/02/26 04:43:41;;;;;;;7.83;3.33;;;;;;;2.28;100.00;101077.56;31111549;28;20042;-82
2024/02/26 04:58:43;;;;;;;21.70;4.13;;;;;;;2.52;100.00;101075.94;31105661;28;20078;-80
2024/02/26 05:13:45;;;;;;;7.77;3.83;;;;;;;2.52;100.00;101092.03;31105115;28;20084;-82
2024/02/26 05:28:49;;;;;;;4.47;2.60;;;;;;;3.11;100.00;101102.06;31098145;28;20076;-82
2024/02/26 05:43:54;;;;;;;13.87;3.87;;;;;;;3.20;100.00;101100.00;31107891;28;20050;-82
2024/02/26 05:58:56;;;;;;;6.60;3.87;;;;;;;2.74;100.00;101099.56;31125494;28;20057;-81
2024/02/26 06:13:59;;;;;;;4.07;2.13;;;;;;;2.91;100.00;101093.88;31087322;28;20073;-82
2024/02/26 06:29:05;;;;;;;6.80;3.73;;;;;;;3.32;100.00;101113.34;31120913;28;20131;-82
2024/02/26 06:44:07;;;;;;;4.83;3.83;;;;;;;3.68;100.00;101110.44;31138803;28;20049;-81
2024/02/26 06:59:09;;;;;;;9.10;3.87;;;;;;;4.16;100.00;101119.25;31072225;28;20137;-81
2024/02/26 07:14:12;;;;;;;7.73;2.63;;;;;;;4.27;100.00;101125.63;31106785;28;20145;-85
2024/02/26 07:29:14;;;;;;;6.33;3.83;;;;;;;4.90;100.00;101140.78;31059588;28;20283;-77
2024/02/26 07:44:17;;;;;;;9.30;3.77;;;;;;;5.44;100.00;101135.25;31073571;28;20128;-83
2024/02/26 07:59:19;;;;;;;18.30;3.50;;;;;;;6.68;96.08;101122.88;31069328;28;20403;-80
2024/02/26 08:14:21;;;;;;;11.67;3.80;;;;;;;8.65;73.17;101107.97;31078320;28;20058;-80
2024/02/26 08:29:23;;;;;;;9.50;3.23;;;;;;;8.93;66.11;101099.94;31040416;28;20053;-83
2024/02/26 08:44:26;;;;;;;10.27;2.53;;;;;;;8.76;63.84;101103.34;31095321;28;20093;-82
2024/02/26 08:59:34;;;;;;;14.23;3.97;;;;;;;9.49;61.95;101098.47;31073307;28;20062;-85
2024/02/26 09:14:36;;;;;;;5.87;2.80;;;;;;;10.22;58.87;101096.91;31083927;28;20484;-83
2024/02/26 09:29:38;;;;;;;7.47;3.13;;;;;;;10.46;56.54;101079.00;31083133;28;20042;-86
2024/02/26 09:44:43;;;;;;;5.80;3.50;;;;;;;11.74;53.74;101083.66;31093855;28;20042;-91
2024/02/26 09:59:48;;;;;;;8.70;3.13;;;;;;;12.14;49.81;101057.63;31083609;28;20050;-90
2024/02/26 10:14:59;;;;;;;12.87;5.77;;;;;;;13.18;47.73;101036.03;31062633;28;20442;-85
2024/02/26 10:30:16;;;;;;;11.47;4.73;;;;;;;12.88;46.54;101033.34;31052210;28;20065;-82
2024/02/26 10:45:19;;;;;;;6.77;3.37;;;;;;;14.08;45.61;101007.97;31068625;28;20456;-86
2024/02/26 11:00:24;;;;;;;7.60;2.83;;;;;;;14.72;44.13;100979.31;31067042;28;20042;-81
2024/02/26 11:15:28;;;;;;;6.93;4.13;;;;;;;14.86;43.85;100941.50;31099672;28;20454;-84
2024/02/26 11:30:34;;;;;;;9.47;2.50;;;;;;;15.32;40.74;100951.31;31092761;28;20499;-83
2024/02/26 11:45:39;;;;;;;7.23;2.90;;;;;;;15.34;40.97;100924.28;31079318;28;20515;-83
2024/02/26 12:00:57;;;;;;;5.38;2.25;;;;;;;15.36;40.66;100919.13;31062498;28;20515;-83
2024/02/26 12:16:39;;;;;;;4.73;2.57;;;;;;;16.89;38.13;100924.88;31078821;28;20448;-83
2024/02/26 12:31:43;;;;;;;5.47;2.90;;;;;;;16.28;39.03;100926.75;31091200;28;20389;-83
2024/02/26 12:46:45;;;;;;;7.47;2.90;;;;;;;13.90;41.28;100918.25;31125812;28;20050;-91
2024/02/26 13:01:47;;;;;;;6.63;2.53;;;;;;;13.02;42.54;100924.09;31087888;28;20515;-78
2024/02/26 13:16:58;;;;;;;5.23;2.10;;;;;;;13.01;42.92;100900.75;31100494;28;20403;-89
2024/02/26 13:32:12;;;;;;;8.13;2.20;;;;;;;12.86;42.75;100910.38;31104514;28;20112;-79
2024/02/26 13:47:14;;;;;;;2.20;1.80;;;;;;;12.28;41.93;100912.41;31067962;28;20050;-76
2024/02/26 14:02:16;;;;;;;6.67;2.30;;;;;;;12.80;41.63;100904.63;31097093;28;20152;-76
2024/02/26 14:17:18;;;;;;;6.40;2.13;;;;;;;12.48;40.83;100910.56;31089502;28;20050;-82
2024/02/26 14:32:21;;;;;;;8.33;2.10;;;;;;;12.09;39.89;100921.19;31102126;28;20130;-86
2024/02/26 14:47:23;;;;;;;8.87;3.27;;;;;;;11.67;39.80;100946.94;31103914;28;20080;-86
2024/02/26 15:02:25;;;;;;;17.97;4.80;;;;;;;11.19;40.20;100945.84;31119629;28;20113;-79
2024/02/26 15:17:59;;;;;;;10.83;3.80;;;;;;;11.14;39.73;100968.00;31136902;28;20054;-94
2024/02/26 15:33:01;;;;;;;10.77;2.93;;;;;;;10.61;40.26;100992.06;31057635;28;20460;-88
2024/02/26 15:48:05;;;;;;;17.50;4.33;;;;;;;10.03;41.14;101002.34;31049524;28;20054;-88
2024/02/26 16:03:09;;;;;;;6.13;2.90;;;;;;;9.49;42.75;101014.47;31106477;28;20163;-87
2024/02/26 16:18:14;;;;;;;7.73;2.40;;;;;;;9.10;43.31;101028.78;31087792;28;20133;-90
2024/02/26 16:33:17;;;;;;;7.03;3.10;;;;;;;8.62;44.16;101041.06;31100867;28;20431;-90
2024/02/26 16:48:19;;;;;;;5.33;2.83;;;;;;;8.33;44.46;101056.41;31091687;28;20507;-79
2024/02/26 17:03:21;;;;;;;7.67;2.53;;;;;;;8.09;45.16;101060.50;31070369;28;20068;-78
2024/02/26 17:18:23;;;;;;;14.93;3.07;;;;;;;7.98;45.72;101056.97;31083604;28;20137;-79
2024/02/26 17:33:25;;;;;;;5.57;3.33;;;;;;;7.69;46.47;101064.09;31079229;28;20046;-79
2024/02/26 17:48:28;;;;;;;8.67;3.63;;;;;;;7.33;48.16;101071.13;31077040;28;20060;-79
2024/02/26 18:03:31;;;;;;;11.70;3.67;;;;;;;7.00;49.82;101053.88;31070010;28;20050;-79
2024/02/26 18:18:34;;;;;;;6.03;3.70;;;;;;;6.73;52.45;101074.00;31091307;28;20072;-84
2024/02/26 18:33:36;;;;;;;10.30;3.87;;;;;;;6.62;54.39;101062.28;31079537;28;20487;-84
2024/02/26 18:48:39;;;;;;;13.73;3.57;;;;;;;6.28;57.50;101040.72;31087640;28;20514;-82
2024/02/26 19:03:44;;;;;;;6.70;3.73;;;;;;;5.87;62.07;101047.06;31046124;28;20061;-82
2024/02/26 19:18:46;;;;;;;9.53;3.10;;;;;;;5.92;64.06;101054.81;31054404;28;20128;-82
2024/02/26 19:33:50;;;;;;;9.33;3.33;;;;;;;5.73;65.86;101075.31;31072501;28;20081;-82
2024/02/26 19:48:53;;;;;;;4.20;2.80;;;;;;;5.61;68.65;101072.84;31075302;28;20054;-80
2024/02/26 20:03:57;;;;;;;12.30;3.47;;;;;;;5.45;71.85;101074.84;31049166;28;20496;-82
2024/02/26 20:18:59;;;;;;;7.30;3.23;;;;;;;5.42;73.50;101075.59;31032097;28;20398;-81
2024/02/26 20:34:02;;;;;;;9.73;3.87;;;;;;;5.35;76.46;101080.84;31094667;28;20073;-81
2024/02/26 20:49:05;;;;;;;10.47;3.23;;;;;;;5.27;78.91;101079.16;31116000;28;20057;-81
2024/02/26 21:04:07;;;;;;;10.13;4.03;;;;;;;5.34;81.54;101079.31;31066702;28;20046;-82
2024/02/26 21:19:10;;;;;;;12.90;3.03;;;;;;;5.21;81.20;101096.75;31078042;28;20043;-78
2024/02/26 21:34:13;;;;;;;7.53;3.10;;;;;;;4.80;88.65;101104.44;31099018;28;20482;-79
2024/02/26 21:49:16;;;;;;;6.70;2.80;;;;;;;4.67;94.01;101089.59;31072939;28;20046;-82
2024/02/26 22:04:18;;;;;;;13.17;3.87;;;;;;;4.66;92.76;101079.97;31104275;28;20046;-84
2024/02/26 22:19:20;;;;;;;7.70;3.63;;;;;;;4.41;96.61;101082.94;31076640;28;20512;-82
2024/02/26 22:34:22;;;;;;;10.70;2.87;;;;;;;4.16;97.40;101108.47;31101696;28;20053;-82
2024/02/26 22:49:24;;;;;;;8.63;3.13;;;;;;;4.13;98.24;101085.00;31096404;28;20101;-82
2024/02/26 23:04:27;;;;;;;9.27;2.80;;;;;;;3.81;100.00;101104.97;31065121;28;20393;-83
2024/02/26 23:19:33;;;;;;;10.60;2.67;;;;;;;3.73;100.00;101102.13;31086673;28;20057;-82
2024/02/26 23:34:37;;;;;;;8.50;2.60;;;;;;;3.61;100.00;101115.63;31081340;28;20046;-82
2024/02/26 23:49:39;;;;;;;8.63;2.10;;;;;;;3.44;100.00;101110.59;31053288;28;20057;-82
